Time;durP1;ratioP1;P1;durP2;ratioP2;P2;SDS_P1;SDS_P2;PMS_P1;PMS_P2;Temp;Humidity;BMP_temperature;BMP_pressure;BME280_temperature;BME280_humidity;BME280_pressure;Samples;Min_cycle;Max_cycle;Signal;HPM_P1;HPM_P2
2022/09/15 00:01:03;;;;;;;14.88;9.15;;;15.90;99.90;;;;;;7329015;19;109530;-78
2022/09/15 00:03:30;;;;;;;13.38;9.20;;;15.90;99.90;;;;;;7330611;19;109526;-78
2022/09/15 00:05:57;;;;;;;15.68;8.32;;;15.90;99.90;;;;;;7334976;19;111878;-77
2022/09/15 00:08:25;;;;;;;14.93;8.65;;;15.90;99.90;;;;;;7332253;19;109581;-78
2022/09/15 00:11:01;;;;;;;13.70;8.93;;;15.80;99.90;;;;;;7332372;19;109686;-78
2022/09/15 00:13:28;;;;;;;16.85;8.65;;;15.80;99.90;;;;;;7336641;19;110658;-78
2022/09/15 00:15:55;;;;;;;15.60;8.43;;;15.80;99.90;;;;;;7332181;19;109457;-78
2022/09/15 00:18:23;;;;;;;12.80;8.52;;;15.80;99.90;;;;;;7331720;19;109217;-78
2022/09/15 00:20:50;;;;;;;14.43;8.35;;;15.70;99.90;;;;;;7331473;19;108403;-78
2022/09/15 00:23:17;;;;;;;14.68;8.85;;;15.70;99.90;;;;;;7333544;19;110136;-78
2022/09/15 00:25:49;;;;;;;13.57;9.32;;;15.70;99.90;;;;;;7332316;19;109352;-77
2022/09/15 00:28:19;;;;;;;11.75;8.98;;;15.70;99.90;;;;;;7332025;19;108925;-78
2022/09/15 00:30:48;;;;;;;8.98;7.00;;;15.60;99.90;;;;;;7332120;19;109393;-78
2022/09/15 00:33:17;;;;;;;10.52;7.90;;;15.60;99.90;;;;;;7330612;19;110357;-78
2022/09/15 00:35:45;;;;;;;11.45;7.55;;;15.60;99.90;;;;;;7336666;19;109201;-78
2022/09/15 00:38:14;;;;;;;10.15;7.03;;;15.60;99.90;;;;;;7332709;19;110408;-78
2022/09/15 00:40:55;;;;;;;8.98;7.13;;;15.50;99.90;;;;;;7331873;19;109124;-78
2022/09/15 00:43:41;;;;;;;9.30;7.78;;;15.50;99.90;;;;;;7328401;19;111560;-78
2022/09/15 00:46:09;;;;;;;8.27;7.47;;;15.50;99.90;;;;;;7328252;19;110014;-78
2022/09/15 00:48:40;;;;;;;15.60;8.52;;;15.40;99.90;;;;;;7329230;19;111804;-78
2022/09/15 00:51:09;;;;;;;10.10;9.07;;;15.40;99.90;;;;;;7330216;19;109839;-78
2022/09/15 00:53:36;;;;;;;11.73;8.55;;;15.40;99.90;;;;;;7329156;19;110236;-78
2022/09/15 00:56:05;;;;;;;15.77;8.70;;;15.40;99.90;;;;;;7327708;19;109455;-78
2022/09/15 00:58:37;;;;;;;9.50;7.55;;;15.30;99.90;;;;;;7335892;19;109472;-78
2022/09/15 01:01:06;;;;;;;9.95;8.13;;;15.30;99.90;;;;;;7326847;19;109120;-78
2022/09/15 01:03:35;;;;;;;10.30;8.73;;;15.30;99.90;;;;;;7327520;19;109826;-78
2022/09/15 01:06:18;;;;;;;16.63;9.93;;;15.20;99.90;;;;;;7329966;19;109398;-78
2022/09/15 01:08:56;;;;;;;10.65;9.43;;;15.20;99.90;;;;;;7330028;19;109318;-78
2022/09/15 01:11:23;;;;;;;14.23;8.95;;;15.20;99.90;;;;;;7330644;19;109609;-78
2022/09/15 01:13:50;;;;;;;11.15;7.80;;;15.20;99.90;;;;;;7330488;19;109445;-78
2022/09/15 01:16:40;;;;;;;13.00;7.80;;;15.20;99.90;;;;;;7330992;19;110300;-78
2022/09/15 01:19:31;;;;;;;7.93;7.03;;;15.20;99.90;;;;;;7328300;19;110335;-78
2022/09/15 01:22:31;;;;;;;8.77;7.00;;;15.20;99.90;;;;;;7346071;19;110270;-78
2022/09/15 01:25:07;;;;;;;8.35;7.55;;;15.20;99.90;;;;;;7344319;19;109095;-78
2022/09/15 01:27:37;;;;;;;9.38;7.82;;;15.20;99.90;;;;;;7338127;19;110995;-78
2022/09/15 01:30:18;;;;;;;8.40;7.55;;;15.30;99.90;;;;;;7340485;19;110412;-78
2022/09/15 01:33:02;;;;;;;8.90;7.65;;;15.30;99.90;;;;;;7340974;19;109658;-78
2022/09/15 01:35:51;;;;;;;10.70;7.82;;;15.30;99.90;;;;;;7336129;19;110182;-78
2022/09/15 01:39:07;;;;;;;10.00;6.95;;;15.30;99.90;;;;;;7330095;19;109052;-78
2022/09/15 01:41:34;;;;;;;9.60;7.47;;;15.30;99.90;;;;;;7328532;19;109608;-78
2022/09/15 01:44:26;;;;;;;10.75;7.80;;;15.30;99.90;;;;;;7328974;19;109111;-78
2022/09/15 01:46:59;;;;;;;11.38;7.70;;;15.40;99.90;;;;;;7335882;19;108745;-78
2022/09/15 01:49:32;;;;;;;13.15;8.30;;;15.40;99.90;;;;;;7327579;19;110358;-78
2022/09/15 01:52:00;;;;;;;14.90;8.90;;;15.40;99.90;;;;;;7330888;19;109734;-77
2022/09/15 01:54:34;;;;;;;15.40;8.73;;;15.40;99.90;;;;;;7325480;19;108613;-78
2022/09/15 01:57:02;;;;;;;14.57;9.20;;;15.40;99.90;;;;;;7331204;19;114060;-78
2022/09/15 01:59:29;;;;;;;12.38;9.32;;;15.40;99.90;;;;;;7325422;19;109839;-78
2022/09/15 02:01:58;;;;;;;11.63;8.73;;;15.40;99.90;;;;;;7329131;19;109809;-78
2022/09/15 02:04:35;;;;;;;13.23;8.77;;;15.50;99.90;;;;;;7328805;19;112154;-78
2022/09/15 02:07:22;;;;;;;18.30;9.20;;;15.40;99.90;;;;;;7330869;19;109632;-78
2022/09/15 02:09:57;;;;;;;12.70;9.60;;;15.50;99.90;;;;;;7340588;19;109085;-78
2022/09/15 02:12:38;;;;;;;11.98;9.38;;;15.40;99.90;;;;;;7334020;19;108891;-78
2022/09/15 02:15:13;;;;;;;11.30;8.65;;;15.40;99.90;;;;;;7336686;19;108640;-78
2022/09/15 02:17:49;;;;;;;13.20;9.05;;;15.50;99.90;;;;;;7336445;19;110208;-78
2022/09/15 02:20:31;;;;;;;12.15;8.90;;;15.40;99.90;;;;;;7333166;19;109244;-78
2022/09/15 02:23:07;;;;;;;16.35;9.23;;;15.40;99.90;;;;;;7335618;19;109744;-78
2022/09/15 02:25:40;;;;;;;19.35;9.75;;;15.40;99.90;;;;;;7335051;19;109313;-78
2022/09/15 02:28:10;;;;;;;15.10;9.35;;;15.40;99.90;;;;;;7337642;19;109899;-78
2022/09/15 02:30:40;;;;;;;13.82;9.75;;;15.40;99.90;;;;;;7342585;19;109251;-79
2022/09/15 02:33:13;;;;;;;16.45;9.75;;;15.40;99.90;;;;;;7333330;19;109828;-78
2022/09/15 02:35:41;;;;;;;14.07;9.90;;;15.40;99.90;;;;;;7336297;19;112061;-78
2022/09/15 02:38:09;;;;;;;15.82;9.80;;;15.40;99.90;;;;;;7335436;19;113650;-78
2022/09/15 02:40:41;;;;;;;13.52;10.00;;;15.40;99.90;;;;;;7334178;19;109271;-77
2022/09/15 02:43:13;;;;;;;18.67;10.75;;;15.40;99.90;;;;;;7335248;19;111558;-78
2022/09/15 02:45:40;;;;;;;15.52;10.73;;;15.40;99.90;;;;;;7331227;19;110497;-78
2022/09/15 02:48:08;;;;;;;17.67;10.38;;;15.50;99.90;;;;;;7330888;19;111502;-78
2022/09/15 02:50:37;;;;;;;19.00;10.23;;;15.50;99.90;;;;;;7332645;19;116443;-78
2022/09/15 02:53:04;;;;;;;18.45;10.95;;;15.50;99.90;;;;;;7333827;19;110086;-78
2022/09/15 02:55:31;;;;;;;15.20;11.25;;;15.50;99.90;;;;;;7328505;19;111659;-78
2022/09/15 02:57:58;;;;;;;18.55;12.15;;;15.50;99.90;;;;;;7333301;19;111503;-78
2022/09/15 03:00:27;;;;;;;18.55;12.77;;;15.50;99.90;;;;;;7330230;19;110570;-78
2022/09/15 03:02:54;;;;;;;19.20;12.90;;;15.50;99.90;;;;;;7329966;19;114941;-78
2022/09/15 03:05:27;;;;;;;22.80;12.52;;;15.50;99.90;;;;;;7329745;19;112007;-78
2022/09/15 03:07:55;;;;;;;19.20;12.45;;;15.50;99.90;;;;;;7331888;19;113924;-78
2022/09/15 03:10:23;;;;;;;18.65;12.50;;;15.50;99.90;;;;;;7328404;19;111192;-78
2022/09/15 03:12:53;;;;;;;20.52;12.45;;;15.50;99.90;;;;;;7331878;19;112166;-78
2022/09/15 03:15:22;;;;;;;25.92;13.70;;;15.60;99.90;;;;;;7336528;19;111014;-78
2022/09/15 03:17:50;;;;;;;17.65;14.15;;;15.60;99.90;;;;;;7330897;19;110980;-78
2022/09/15 03:20:22;;;;;;;17.75;13.15;;;15.60;99.90;;;;;;7328871;19;111612;-78
2022/09/15 03:22:49;;;;;;;18.95;13.40;;;15.60;99.90;;;;;;7330503;19;110804;-78
2022/09/15 03:25:17;;;;;;;23.90;14.40;;;15.60;99.90;;;;;;7331309;19;113659;-78
2022/09/15 03:27:44;;;;;;;23.88;14.60;;;15.60;99.90;;;;;;7331259;19;110934;-78
2022/09/15 03:30:12;;;;;;;30.35;15.32;;;15.70;99.90;;;;;;7328705;19;110932;-78
2022/09/15 03:32:40;;;;;;;21.38;14.75;;;15.70;99.90;;;;;;7331353;19;110506;-78
2022/09/15 03:35:07;;;;;;;30.30;15.73;;;15.70;99.90;;;;;;7330953;19;110733;-78
2022/09/15 03:37:34;;;;;;;30.90;15.52;;;15.70;99.90;;;;;;7334926;19;111625;-78
2022/09/15 03:40:02;;;;;;;24.45;15.48;;;15.70;99.90;;;;;;7328309;19;111101;-78
2022/09/15 03:42:29;;;;;;;23.85;16.38;;;15.70;99.90;;;;;;7332332;19;115202;-79
2022/09/15 03:44:57;;;;;;;24.23;16.08;;;15.70;99.90;;;;;;7331080;19;113516;-78
2022/09/15 03:47:24;;;;;;;21.35;16.10;;;15.70;99.90;;;;;;7332222;19;111639;-78
2022/09/15 03:49:51;;;;;;;27.42;17.40;;;15.70;99.90;;;;;;7329353;19;114136;-78
2022/09/15 03:52:18;;;;;;;26.23;16.63;;;15.70;99.90;;;;;;7330795;19;111256;-78
2022/09/15 03:54:47;;;;;;;26.83;16.85;;;15.70;99.90;;;;;;7329563;19;111487;-78
2022/09/15 03:57:14;;;;;;;27.35;17.00;;;15.70;99.90;;;;;;7329516;19;113715;-78
2022/09/15 03:59:41;;;;;;;;;;;15.70;99.90;;;;;;7336502;19;110790;-77
2022/09/15 04:02:08;;;;;;;26.15;18.17;;;15.60;99.90;;;;;;7336537;19;112268;-78
2022/09/15 04:04:35;;;;;;;32.08;16.88;;;15.60;99.90;;;;;;7329794;19;110495;-79
2022/09/15 04:07:02;;;;;;;33.42;18.38;;;15.60;99.90;;;;;;7331581;19;111014;-78
2022/09/15 04:09:30;;;;;;;28.27;17.63;;;15.60;99.90;;;;;;7328019;19;111220;-78
2022/09/15 04:11:57;;;;;;;32.13;18.95;;;15.50;99.90;;;;;;7329267;19;110991;-78
2022/09/15 04:14:24;;;;;;;30.30;18.40;;;15.40;99.90;;;;;;7328050;19;110872;-78
2022/09/15 04:16:51;;;;;;;28.50;17.98;;;15.30;99.90;;;;;;7329765;19;111478;-78
2022/09/15 04:19:18;;;;;;;24.33;16.73;;;15.30;99.90;;;;;;7328444;19;113194;-78
2022/09/15 04:21:46;;;;;;;31.10;17.23;;;15.30;99.90;;;;;;7336075;19;111007;-78
2022/09/15 04:24:13;;;;;;;27.83;16.80;;;15.30;99.90;;;;;;7330204;19;110788;-78
2022/09/15 04:26:40;;;;;;;24.63;16.00;;;15.30;99.90;;;;;;7328778;19;111672;-78
2022/09/15 04:29:13;;;;;;;22.35;16.00;;;15.30;99.90;;;;;;7331382;19;115016;-78
2022/09/15 04:31:41;;;;;;;25.77;15.85;;;15.30;99.90;;;;;;7327819;19;111373;-78
2022/09/15 04:34:09;;;;;;;20.65;14.60;;;15.30;99.90;;;;;;7328547;19;111380;-78
2022/09/15 04:36:36;;;;;;;17.88;14.65;;;15.30;99.90;;;;;;7327745;19;110774;-78
2022/09/15 04:39:04;;;;;;;24.40;15.32;;;15.30;99.90;;;;;;7327898;19;111040;-78
2022/09/15 04:41:32;;;;;;;23.67;15.05;;;15.40;99.90;;;;;;7329928;19;112735;-78
2022/09/15 04:43:59;;;;;;;18.85;14.35;;;15.30;99.90;;;;;;7326795;19;111577;-78
2022/09/15 04:46:26;;;;;;;24.48;15.85;;;15.30;99.90;;;;;;7325479;19;110680;-78
2022/09/15 04:48:54;;;;;;;21.60;15.75;;;15.30;99.90;;;;;;7326431;19;111264;-78
2022/09/15 04:51:22;;;;;;;21.95;15.75;;;15.30;99.90;;;;;;7325463;19;111668;-79
2022/09/15 04:53:50;;;;;;;19.73;15.60;;;15.30;99.90;;;;;;7330917;19;110758;-79
2022/09/15 04:56:23;;;;;;;21.90;14.80;;;15.30;99.90;;;;;;7324329;19;111550;-79
2022/09/15 04:58:52;;;;;;;22.40;14.80;;;15.20;99.90;;;;;;7326936;19;111075;-79
2022/09/15 05:01:26;;;;;;;22.48;15.43;;;15.20;99.90;;;;;;7326238;19;111206;-79
2022/09/15 05:03:53;;;;;;;24.50;16.05;;;15.20;99.90;;;;;;7332302;19;111602;-79
2022/09/15 05:06:23;;;;;;;31.33;18.52;;;15.20;99.90;;;;;;7326027;19;111544;-80
2022/09/15 05:08:52;;;;;;;21.70;16.02;;;15.20;99.90;;;;;;7326266;19;112128;-78
2022/09/15 05:11:20;;;;;;;26.08;17.88;;;15.10;99.90;;;;;;7327141;19;112850;-77
2022/09/15 05:13:47;;;;;;;24.33;16.92;;;15.10;99.90;;;;;;7327502;19;111591;-78
2022/09/15 05:16:20;;;;;;;23.30;15.57;;;15.10;99.90;;;;;;7326846;19;111469;-79
2022/09/15 05:18:49;;;;;;;21.90;16.48;;;15.10;99.90;;;;;;7327132;19;110518;-78
2022/09/15 05:21:18;;;;;;;26.30;16.98;;;15.10;99.90;;;;;;7326248;19;110460;-78
2022/09/15 05:23:47;;;;;;;25.08;16.25;;;15.10;99.90;;;;;;7327936;19;111747;-78
2022/09/15 05:26:17;;;;;;;21.80;15.40;;;15.10;99.90;;;;;;7334126;19;110848;-78
2022/09/15 05:28:44;;;;;;;23.25;15.40;;;15.10;99.90;;;;;;7328776;19;110771;-78
2022/09/15 05:31:23;;;;;;;20.60;14.95;;;15.10;99.90;;;;;;7328769;19;111216;-78
2022/09/15 05:33:51;;;;;;;25.25;15.85;;;15.00;99.90;;;;;;7327673;19;110339;-78
2022/09/15 05:36:23;;;;;;;19.98;15.38;;;15.00;99.90;;;;;;7327840;19;111335;-79
2022/09/15 05:38:57;;;;;;;22.42;15.05;;;15.00;99.90;;;;;;7331659;19;110512;-78
2022/09/15 05:41:25;;;;;;;28.92;16.30;;;15.00;99.90;;;;;;7327105;19;110853;-78
2022/09/15 05:43:55;;;;;;;21.98;14.10;;;14.90;99.90;;;;;;7330803;19;113153;-78
2022/09/15 05:46:26;;;;;;;20.73;14.20;;;14.90;99.90;;;;;;7336243;19;111435;-78
2022/09/15 05:48:55;;;;;;;21.85;15.25;;;14.80;99.90;;;;;;7341764;19;111536;-78
2022/09/15 05:51:23;;;;;;;22.35;14.70;;;14.80;99.90;;;;;;7335086;19;111155;-77
2022/09/15 05:53:50;;;;;;;21.85;14.48;;;14.80;99.90;;;;;;7336193;19;110995;-78
2022/09/15 05:56:19;;;;;;;19.05;15.02;;;14.80;99.90;;;;;;7334514;19;110864;-78
2022/09/15 05:58:47;;;;;;;17.30;13.20;;;14.80;99.90;;;;;;7337345;19;110568;-77
2022/09/15 06:01:33;;;;;;;18.38;12.95;;;14.80;99.90;;;;;;7335082;19;112753;-78
2022/09/15 06:04:00;;;;;;;20.08;13.55;;;14.80;99.90;;;;;;7335759;19;113763;-78
2022/09/15 06:06:30;;;;;;;21.83;14.27;;;14.70;99.90;;;;;;7335328;19;111199;-78
2022/09/15 06:08:59;;;;;;;16.23;13.45;;;14.70;99.90;;;;;;7337662;19;111621;-80
2022/09/15 06:11:29;;;;;;;23.13;14.25;;;14.70;99.90;;;;;;7340542;19;112270;-81
2022/09/15 06:14:01;;;;;;;22.80;14.93;;;14.80;99.90;;;;;;7333813;19;111464;-80
2022/09/15 06:16:32;;;;;;;26.83;15.27;;;14.80;99.90;;;;;;7335052;19;111086;-81
2022/09/15 06:19:00;;;;;;;22.08;15.63;;;14.80;99.90;;;;;;7335982;19;110336;-79
2022/09/15 06:21:28;;;;;;;23.60;15.30;;;14.80;99.90;;;;;;7334732;19;110907;-81
2022/09/15 06:24:00;;;;;;;26.48;17.30;;;14.90;99.90;;;;;;7334810;19;111314;-80
2022/09/15 06:26:28;;;;;;;25.83;17.23;;;14.90;99.90;;;;;;7332120;19;110323;-79
2022/09/15 06:28:57;;;;;;;24.80;17.30;;;15.00;99.90;;;;;;7332796;19;114969;-79
2022/09/15 06:31:26;;;;;;;25.55;16.20;;;15.00;99.90;;;;;;7335330;19;110814;-79
2022/09/15 06:33:55;;;;;;;28.35;15.38;;;15.00;99.90;;;;;;7333210;19;110932;-78
2022/09/15 06:36:25;;;;;;;22.42;14.90;;;15.10;99.90;;;;;;7331487;19;113140;-78
2022/09/15 06:38:53;;;;;;;23.58;14.50;;;15.00;99.90;;;;;;7334073;19;112121;-78
2022/09/15 06:41:20;;;;;;;19.30;15.25;;;15.00;99.90;;;;;;7330727;19;110780;-78
2022/09/15 06:43:48;;;;;;;24.05;17.13;;;15.10;99.90;;;;;;7333223;19;111826;-78
2022/09/15 06:46:19;;;;;;;31.75;17.65;;;15.10;99.90;;;;;;7332955;19;110185;-78
2022/09/15 06:48:47;;;;;;;23.45;16.85;;;15.20;99.90;;;;;;7332049;19;115047;-78
2022/09/15 06:51:16;;;;;;;33.05;19.38;;;15.20;99.90;;;;;;7330527;19;112520;-78
2022/09/15 06:53:43;;;;;;;27.05;17.73;;;15.30;99.90;;;;;;7336985;19;111864;-78
2022/09/15 06:56:13;;;;;;;26.25;18.30;;;15.30;99.90;;;;;;7330401;19;113676;-78
2022/09/15 06:58:42;;;;;;;28.90;17.77;;;15.30;99.90;;;;;;7335234;19;110470;-78
2022/09/15 07:01:17;;;;;;;34.85;19.65;;;15.30;99.90;;;;;;7332403;19;111331;-78
2022/09/15 07:03:45;;;;;;;24.67;19.40;;;15.40;99.90;;;;;;7332952;19;110888;-78
2022/09/15 07:06:12;;;;;;;28.83;18.58;;;15.40;99.90;;;;;;7332030;19;110384;-78
2022/09/15 07:08:40;;;;;;;27.98;19.80;;;15.50;99.90;;;;;;7332442;19;111138;-77
2022/09/15 07:11:09;;;;;;;34.95;20.13;;;15.50;99.90;;;;;;7329704;19;111801;-78
2022/09/15 07:13:36;;;;;;;29.38;19.73;;;15.60;99.90;;;;;;7333515;19;111296;-78
2022/09/15 07:16:06;;;;;;;30.55;20.10;;;15.60;99.90;;;;;;7338944;19;112698;-78
2022/09/15 07:18:34;;;;;;;37.70;22.90;;;15.70;99.90;;;;;;7330451;19;110570;-78
2022/09/15 07:21:11;;;;;;;37.75;22.00;;;15.70;99.90;;;;;;7332373;19;111028;-77
2022/09/15 07:23:38;;;;;;;38.72;22.38;;;15.70;99.90;;;;;;7332766;19;113005;-77
2022/09/15 07:26:09;;;;;;;32.28;20.23;;;15.80;99.90;;;;;;7332154;19;111205;-77
2022/09/15 07:28:39;;;;;;;36.63;21.52;;;15.70;99.90;;;;;;7329314;19;110877;-86
2022/09/15 07:31:07;;;;;;;35.10;21.80;;;15.80;99.90;;;;;;7328017;19;111740;-87
2022/09/15 07:33:35;;;;;;;35.95;22.33;;;15.90;99.90;;;;;;7329660;19;110250;-87
2022/09/15 07:36:06;;;;;;;35.45;21.40;;;16.00;99.90;;;;;;7329198;19;112100;-87
2022/09/15 07:38:34;;;;;;;35.90;22.33;;;16.10;99.90;;;;;;7334055;19;111919;-86
2022/09/15 07:41:03;;;;;;;34.28;23.00;;;16.20;99.90;;;;;;7329895;19;110519;-87
2022/09/15 07:43:30;;;;;;;44.15;23.90;;;16.30;99.90;;;;;;7332127;19;111740;-86
2022/09/15 07:45:59;;;;;;;38.28;23.10;;;16.30;99.90;;;;;;7333604;19;110739;-88
2022/09/15 07:48:26;;;;;;;36.50;23.15;;;16.30;99.90;;;;;;7330514;19;113488;-87
2022/09/15 07:50:53;;;;;;;44.08;23.90;;;16.40;99.90;;;;;;7331065;19;112720;-87
2022/09/15 07:53:21;;;;;;;39.63;22.55;;;16.40;99.90;;;;;;7329816;19;110515;-88
2022/09/15 07:55:52;;;;;;;31.80;21.58;;;16.50;99.90;;;;;;7334084;19;111932;-88
2022/09/15 07:58:20;;;;;;;35.55;21.23;;;16.60;99.90;;;;;;7332217;19;111862;-87
2022/09/15 08:00:47;;;;;;;32.25;21.17;;;16.70;99.90;;;;;;7335704;19;110387;-87
2022/09/15 08:03:15;;;;;;;37.63;21.80;;;16.70;99.90;;;;;;7332567;19;110861;-87
2022/09/15 08:05:42;;;;;;;42.10;23.90;;;16.80;99.90;;;;;;7330003;19;113586;-87
2022/09/15 08:08:11;;;;;;;37.13;21.45;;;16.80;99.90;;;;;;7331480;19;115013;-87
2022/09/15 08:10:39;;;;;;;34.33;21.58;;;16.90;99.90;;;;;;7330506;19;112418;-88
2022/09/15 08:13:07;;;;;;;32.60;21.23;;;16.90;99.90;;;;;;7331553;19;111395;-87
2022/09/15 08:15:36;;;;;;;35.67;21.50;;;17.00;99.90;;;;;;7330638;19;113557;-88
2022/09/15 08:18:04;;;;;;;28.20;20.77;;;17.10;99.90;;;;;;7331878;19;111994;-87
2022/09/15 08:20:32;;;;;;;34.10;20.70;;;17.10;99.90;;;;;;7329376;19;110032;-88
2022/09/15 08:22:59;;;;;;;37.95;22.15;;;17.20;99.90;;;;;;7337600;19;110500;-87
2022/09/15 08:25:26;;;;;;;37.53;21.30;;;17.30;99.90;;;;;;7331405;19;110259;-86
2022/09/15 08:27:55;;;;;;;33.30;20.60;;;17.40;99.90;;;;;;7333103;19;113810;-89
2022/09/15 08:30:22;;;;;;;41.13;24.17;;;17.50;99.90;;;;;;7330114;19;111284;-86
2022/09/15 08:32:50;;;;;;;30.55;21.02;;;17.60;99.90;;;;;;7331853;19;110296;-89
2022/09/15 08:35:18;;;;;;;27.95;19.92;;;17.70;99.90;;;;;;7330920;19;111551;-87
2022/09/15 08:37:45;;;;;;;30.42;20.58;;;17.80;99.90;;;;;;7332086;19;115061;-89
2022/09/15 08:40:27;;;;;;;36.17;19.27;;;17.90;99.90;;;;;;7332775;19;110194;-89
2022/09/15 08:42:58;;;;;;;25.58;17.75;;;17.90;99.90;;;;;;7337287;19;111458;-89
2022/09/15 08:45:31;;;;;;;31.02;17.02;;;18.00;99.90;;;;;;7329625;19;112521;-88
2022/09/15 08:48:02;;;;;;;32.38;15.90;;;18.10;99.90;;;;;;7332129;19;112079;-88
2022/09/15 08:50:40;;;;;;;16.52;13.57;;;18.20;99.90;;;;;;7328822;19;111834;-88
2022/09/15 08:53:18;;;;;;;23.25;13.93;;;18.30;99.90;;;;;;7331946;19;109959;-89
2022/09/15 08:55:49;;;;;;;17.90;13.45;;;18.40;99.90;;;;;;7329755;19;111505;-88
2022/09/15 08:58:24;;;;;;;18.50;12.18;;;18.50;99.90;;;;;;7330302;19;111887;-87
2022/09/15 09:01:01;;;;;;;22.45;12.05;;;18.60;99.90;;;;;;7330868;19;110446;-88
2022/09/15 09:03:47;;;;;;;16.73;11.30;;;18.70;99.90;;;;;;7328721;19;111484;-89
2022/09/15 09:06:38;;;;;;;17.85;11.45;;;18.80;99.90;;;;;;7334591;19;111991;-87
2022/09/15 09:09:18;;;;;;;16.13;10.02;;;18.90;99.90;;;;;;7331312;19;111477;-88
2022/09/15 09:11:52;;;;;;;15.60;10.60;;;18.90;99.90;;;;;;7332675;19;112237;-87
2022/09/15 09:14:48;;;;;;;15.52;9.43;;;18.90;99.90;;;;;;7330536;19;110477;-87
2022/09/15 09:17:49;;;;;;;15.65;10.05;;;19.00;99.90;;;;;;7333911;19;111827;-87
2022/09/15 09:20:38;;;;;;;10.63;7.13;;;19.10;99.90;;;;;;7331998;19;112779;-87
2022/09/15 09:23:14;;;;;;;11.15;5.47;;;19.20;99.90;;;;;;7333854;19;110385;-87
2022/09/15 09:25:43;;;;;;;16.00;6.60;;;19.20;99.90;;;;;;7334297;19;109501;-88
2022/09/15 09:28:40;;;;;;;13.35;5.55;;;19.30;99.90;;;;;;7324815;19;109351;-88
2022/09/15 09:31:17;;;;;;;10.43;6.63;;;19.30;99.90;;;;;;7332191;19;110817;-87
2022/09/15 09:34:13;;;;;;;11.73;5.95;;;19.40;99.90;;;;;;7332762;19;110421;-88
2022/09/15 09:36:41;;;;;;;9.13;4.55;;;19.40;99.90;;;;;;7332382;19;110238;-88
2022/09/15 09:39:13;;;;;;;12.60;5.07;;;19.40;99.90;;;;;;7331186;19;108658;-88
2022/09/15 09:41:41;;;;;;;11.77;5.10;;;19.50;99.90;;;;;;7330604;19;109375;-88
2022/09/15 09:44:14;;;;;;;14.48;4.15;;;19.60;99.90;;;;;;7333898;19;110768;-88
2022/09/15 09:46:41;;;;;;;7.47;2.83;;;19.60;99.90;;;;;;7331102;19;108916;-88
2022/09/15 09:49:24;;;;;;;9.52;2.30;;;19.70;99.90;;;;;;7333206;19;109472;-85
2022/09/15 09:52:03;;;;;;;6.93;2.50;;;19.80;99.90;;;;;;7331471;19;109632;-87
2022/09/15 09:54:32;;;;;;;9.52;2.33;;;19.80;99.90;;;;;;7336223;19;110794;-88
2022/09/15 09:57:27;;;;;;;7.10;1.98;;;19.70;99.90;;;;;;7332631;19;110419;-88
2022/09/15 09:59:54;;;;;;;9.15;1.70;;;19.80;99.90;;;;;;7332324;19;108536;-88
2022/09/15 10:02:28;;;;;;;10.30;1.95;;;19.70;99.90;;;;;;7328346;19;110380;-88
2022/09/15 10:05:18;;;;;;;6.80;1.70;;;19.70;99.90;;;;;;7332471;19;110338;-87
2022/09/15 10:07:46;;;;;;;6.20;1.98;;;19.70;99.90;;;;;;7331976;19;109057;-88
2022/09/15 10:10:22;;;;;;;12.30;1.67;;;19.70;99.90;;;;;;7329319;19;109918;-86
2022/09/15 10:12:53;;;;;;;6.20;1.35;;;19.70;99.90;;;;;;7331307;19;109237;-88
2022/09/15 10:15:25;;;;;;;7.07;1.20;;;19.60;99.90;;;;;;7330290;19;108512;-87
2022/09/15 10:17:54;;;;;;;4.32;1.35;;;19.60;99.90;;;;;;7336958;19;110458;-88
2022/09/15 10:20:34;;;;;;;5.03;1.17;;;19.60;99.90;;;;;;7328884;19;111391;-88
2022/09/15 10:23:26;;;;;;;7.10;1.80;;;19.50;99.90;;;;;;7330435;19;108618;-87
2022/09/15 10:26:31;;;;;;;5.65;1.48;;;19.60;99.90;;;;;;7326505;19;109246;-87
2022/09/15 10:29:17;;;;;;;4.13;1.40;;;19.60;99.90;;;;;;7334929;19;108374;-88
2022/09/15 10:31:45;;;;;;;6.93;1.67;;;19.50;99.90;;;;;;7337872;19;109693;-88
2022/09/15 10:34:29;;;;;;;9.63;2.20;;;19.60;99.90;;;;;;7337776;19;110030;-87
2022/09/15 10:37:26;;;;;;;10.52;2.17;;;19.60;99.90;;;;;;7337863;19;108349;-87
2022/09/15 10:39:55;;;;;;;12.38;1.70;;;19.70;99.90;;;;;;7338611;19;109899;-87
2022/09/15 10:42:40;;;;;;;5.75;1.73;;;19.80;99.90;;;;;;7341997;19;110166;-87
2022/09/15 10:45:21;;;;;;;8.52;2.10;;;19.90;99.90;;;;;;7343788;19;109482;-87
2022/09/15 10:47:57;;;;;;;9.80;1.90;;;20.00;99.90;;;;;;7345930;19;108966;-88
2022/09/15 10:50:29;;;;;;;5.93;1.63;;;20.00;99.90;;;;;;7344322;19;108375;-88
2022/09/15 10:53:22;;;;;;;5.50;1.63;;;20.10;99.90;;;;;;7343373;19;115596;-88
2022/09/15 10:55:58;;;;;;;7.45;1.88;;;20.20;99.90;;;;;;7341553;19;110656;-88
2022/09/15 10:58:28;;;;;;;6.43;2.08;;;20.20;99.90;;;;;;7340901;19;109540;-88
2022/09/15 11:01:17;;;;;;;6.93;1.92;;;20.20;99.90;;;;;;7340509;19;109011;-88
2022/09/15 11:04:03;;;;;;;5.50;1.63;;;20.30;99.90;;;;;;7349019;19;109318;-87
2022/09/15 11:06:51;;;;;;;8.52;1.75;;;20.40;99.90;;;;;;7342926;19;110534;-89
2022/09/15 11:09:24;;;;;;;7.28;2.10;;;20.40;99.90;;;;;;7343660;19;110281;-86
2022/09/15 11:12:03;;;;;;;13.50;3.60;;;20.30;99.90;;;;;;7346112;19;109691;-88
2022/09/15 11:15:04;;;;;;;9.82;2.13;;;20.30;99.90;;;;;;7341129;19;109663;-88
2022/09/15 11:17:44;;;;;;;9.10;2.03;;;20.30;99.90;;;;;;7335675;19;112118;-88
2022/09/15 11:20:29;;;;;;;5.32;1.80;;;20.20;99.90;;;;;;7338797;19;109061;-88
2022/09/15 11:23:03;;;;;;;9.80;2.08;;;20.20;99.90;;;;;;7336452;19;109663;-88
2022/09/15 11:25:39;;;;;;;8.18;1.92;;;20.10;99.90;;;;;;7333185;19;110570;-88
2022/09/15 11:28:14;;;;;;;6.90;2.10;;;20.10;99.90;;;;;;7340880;19;112197;-87
2022/09/15 11:30:51;;;;;;;7.13;2.05;;;20.00;99.90;;;;;;7337605;19;110930;-87
2022/09/15 11:33:26;;;;;;;6.65;1.70;;;20.00;99.90;;;;;;7333720;19;110004;-87
2022/09/15 11:36:18;;;;;;;6.28;2.00;;;20.00;99.90;;;;;;7335208;19;110666;-86
2022/09/15 11:39:03;;;;;;;11.30;1.10;;;19.80;99.90;;;;;;7335041;19;109764;-88
2022/09/15 11:41:42;;;;;;;7.32;1.20;;;19.60;99.90;;;;;;7330644;19;109170;-85
2022/09/15 11:44:15;;;;;;;4.35;1.10;;;19.40;99.90;;;;;;7334128;19;111575;-86
2022/09/15 11:47:04;;;;;;;3.92;1.05;;;19.30;99.90;;;;;;7336387;19;110674;-85
2022/09/15 11:49:55;;;;;;;2.08;0.75;;;19.20;99.90;;;;;;7334212;19;108959;-85
2022/09/15 11:52:41;;;;;;;6.72;1.15;;;19.10;99.90;;;;;;7339486;19;110057;-85
2022/09/15 11:55:23;;;;;;;6.47;1.08;;;19.10;99.90;;;;;;7333904;19;108853;-86
2022/09/15 11:58:07;;;;;;;5.43;1.13;;;19.10;99.90;;;;;;7330788;19;109461;-85
2022/09/15 12:00:42;;;;;;;7.75;1.65;;;19.10;99.90;;;;;;7333570;19;109270;-85
2022/09/15 12:03:15;;;;;;;5.50;1.45;;;19.10;99.90;;;;;;7331933;19;109106;-85
2022/09/15 12:06:15;;;;;;;8.70;2.05;;;19.10;99.90;;;;;;7335089;19;112332;-86
2022/09/15 12:08:59;;;;;;;7.53;1.75;;;19.10;99.90;;;;;;7331660;19;110625;-86
2022/09/15 12:11:30;;;;;;;7.70;1.60;;;19.10;99.90;;;;;;7332524;19;109286;-85
2022/09/15 12:13:58;;;;;;;5.45;1.70;;;19.00;99.90;;;;;;7333028;19;110266;-87
2022/09/15 12:16:30;;;;;;;6.57;1.50;;;19.10;99.90;;;;;;7337355;19;111106;-88
2022/09/15 12:19:14;;;;;;;5.43;1.10;;;19.20;99.90;;;;;;7333823;19;109904;-88
2022/09/15 12:21:54;;;;;;;9.18;1.33;;;19.40;99.90;;;;;;7334873;19;110749;-86
2022/09/15 12:24:31;;;;;;;11.90;1.30;;;19.50;99.90;;;;;;7334072;19;108395;-88
2022/09/15 12:27:00;;;;;;;5.05;1.27;;;19.50;99.90;;;;;;7335392;19;110040;-87
2022/09/15 12:29:26;;;;;;;6.97;1.40;;;19.60;99.90;;;;;;7331249;19;113624;-87
2022/09/15 12:32:15;;;;;;;6.35;1.30;;;19.60;99.90;;;;;;7332823;19;108456;-87
2022/09/15 12:35:02;;;;;;;5.70;1.52;;;19.60;99.90;;;;;;7333788;19;109577;-86
2022/09/15 12:37:38;;;;;;;3.25;1.00;;;19.70;99.90;;;;;;7331015;19;110648;-88
2022/09/15 12:40:23;;;;;;;7.00;1.30;;;19.80;99.90;;;;;;7338176;19;110454;-88
2022/09/15 12:42:51;;;;;;;3.65;1.10;;;19.90;99.90;;;;;;7333409;19;110525;-87
2022/09/15 12:45:26;;;;;;;7.47;1.00;;;20.00;99.90;;;;;;7332922;19;108624;-86
2022/09/15 12:48:05;;;;;;;5.70;1.10;;;20.00;99.90;;;;;;7331450;19;110750;-87
2022/09/15 12:50:39;;;;;;;6.80;1.40;;;20.10;99.90;;;;;;7329487;19;109763;-86
2022/09/15 12:53:23;;;;;;;6.07;1.23;;;20.10;99.90;;;;;;7332316;19;108461;-87
2022/09/15 12:55:59;;;;;;;4.07;1.15;;;20.20;99.90;;;;;;7333206;19;109411;-87